Time,TemperatureF,DewpointF,PressureIn,WindDirection,WindDirectionDegrees,WindSpeedMPH,WindSpeedGustMPH,Humidity,HourlyPrecipIn,Conditions,Clouds,dailyrainin,SolarRadiationWatts/m^2,SoftwareType,DateUTC
2013-04-13 00:00:00,76.5,73.0,29.92,South,182,0.0,0.0,89,0.00,,SCT030,0.00,70.00,VWS V14.01,2013-04-13 04:00:00,
2013-04-13 00:05:00,76.4,72.9,29.92,South,183,0.0,0.0,89,0.00,,SCT030,0.00,70.00,VWS V14.01,2013-04-13 04:05:00,
2013-04-13 00:10:00,76.4,72.9,29.92,South,182,0.0,0.0,89,0.00,,SCT030,0.00,70.00,VWS V14.01,2013-04-13 04:10:00,
2013-04-13 00:15:00,76.3,72.8,29.92,South,182,0.0,0.0,89,0.00,,SCT030,0.00,70.00,VWS V14.01,2013-04-13 04:15:00,
2013-04-13 00:20:00,76.3,72.8,29.92,South,182,0.0,0.0,89,0.00,,SCT030,0.00,70.00,VWS V14.01,2013-04-13 04:20:00,
2013-04-13 00:25:00,76.3,73.2,29.92,South,182,0.0,1.0,90,0.00,,SCT030,0.00,70.00,VWS V14.01,2013-04-13 04:25:00,
2013-04-13 00:30:00,76.3,73.2,29.92,South,183,0.0,1.0,90,0.00,,SCT030,0.00,70.00,VWS V14.01,2013-04-13 04:30:00,
2013-04-13 00:35:00,76.2,73.1,29.92,South,182,0.0,1.0,90,0.00,,SCT030,0.00,70.00,VWS V14.01,2013-04-13 04:35:00,
2013-04-13 00:40:00,76.2,73.1,29.91,South,183,0.0,1.0,90,0.00,,SCT030,0.00,70.00,VWS V14.01,2013-04-13 04:40:00,
2013-04-13 00:45:00,76.1,73.0,29.91,South,182,0.0,1.0,90,0.00,,SCT030,0.00,70.00,VWS V14.01,2013-04-13 04:45:00,
2013-04-13 00:50:00,76.0,72.9,29.91,South,182,1.0,2.0,90,0.00,,SCT030,0.00,70.00,VWS V14.01,2013-04-13 04:50:00,
2013-04-13 00:55:00,75.9,72.8,29.91,South,183,0.0,2.0,90,0.00,,SCT030,0.00,70.00,VWS V14.01,2013-04-13 04:55:00,
2013-04-13 01:00:00,75.9,72.8,29.91,South,182,0.0,3.0,90,0.00,,SCT030,0.00,70.00,VWS V14.01,2013-04-13 05:00:00,
2013-04-13 01:05:00,75.8,72.7,29.91,South,182,0.0,2.0,90,0.00,,SCT030,0.00,70.00,VWS V14.01,2013-04-13 05:05:00,
2013-04-13 01:10:00,75.8,72.7,29.91,South,182,0.0,2.0,90,0.00,,SCT030,0.00,70.00,VWS V14.01,2013-04-13 05:10:00,
2013-04-13 01:15:00,75.8,73.0,29.91,South,182,0.0,3.0,91,0.00,,SCT030,0.00,70.00,VWS V14.01,2013-04-13 05:15:00,
2013-04-13 01:20:00,75.7,72.9,29.91,South,182,2.0,2.0,91,0.00,,SCT030,0.00,70.00,VWS V14.01,2013-04-13 05:20:00,
2013-04-13 01:25:00,75.6,72.8,29.91,South,182,0.0,2.0,91,0.00,,SCT030,0.00,70.00,VWS V14.01,2013-04-13 05:25:00,
2013-04-13 01:30:00,75.6,72.8,29.90,South,182,0.0,0.0,91,0.00,,SCT030,0.00,70.00,VWS V14.01,2013-04-13 05:30:00,
2013-04-13 01:35:00,75.5,72.7,29.91,South,182,0.0,3.0,91,0.00,,SCT030,0.00,70.00,VWS V14.01,2013-04-13 05:35:00,
2013-04-13 01:40:00,75.5,72.7,29.90,South,182,0.0,0.0,91,0.00,,SCT030,0.00,70.00,VWS V14.01,2013-04-13 05:40:00,
2013-04-13 01:45:00,75.4,72.6,29.91,South,183,0.0,0.0,91,0.00,,SCT030,0.00,70.00,VWS V14.01,2013-04-13 05:45:00,
2013-04-13 01:50:00,75.3,72.5,29.90,South,182,0.0,1.0,91,0.00,,SCT030,0.00,70.00,VWS V14.01,2013-04-13 05:50:00,
2013-04-13 01:55:00,75.3,72.5,29.90,South,183,0.0,2.0,91,0.00,,SCT030,0.00,70.00,VWS V14.01,2013-04-13 05:55:00,
2013-04-13 02:00:00,75.3,72.5,29.90,South,183,1.0,2.0,91,0.00,,SCT030,0.00,69.00,VWS V14.01,2013-04-13 06:00:00,
2013-04-13 02:05:00,75.3,72.5,29.90,South,183,0.0,1.0,91,0.00,,SCT030,0.00,70.00,VWS V14.01,2013-04-13 06:05:00,
2013-04-13 02:10:00,75.3,72.5,29.89,South,183,0.0,1.0,91,0.00,,SCT030,0.00,70.00,VWS V14.01,2013-04-13 06:10:00,
2013-04-13 02:15:00,75.2,72.4,29.89,South,182,0.0,1.0,91,0.00,,SCT030,0.00,70.00,VWS V14.01,2013-04-13 06:15:00,
2013-04-13 02:20:00,75.2,72.4,29.89,South,183,0.0,2.0,91,0.00,,SCT030,0.00,69.00,VWS V14.01,2013-04-13 06:20:00,
2013-04-13 02:25:00,75.1,72.3,29.89,South,182,1.0,2.0,91,0.00,,SCT030,0.00,69.00,VWS V14.01,2013-04-13 06:25:00,
2013-04-13 02:30:00,75.1,72.6,29.89,South,183,0.0,2.0,92,0.00,,SCT030,0.00,69.00,VWS V14.01,2013-04-13 06:30:00,
2013-04-13 02:35:00,75.1,72.6,29.89,South,182,1.0,2.0,92,0.00,,SCT030,0.00,69.00,VWS V14.01,2013-04-13 06:35:00,
2013-04-13 02:40:00,75.0,72.5,29.89,South,183,0.0,1.0,92,0.00,,SCT030,0.00,69.00,VWS V14.01,2013-04-13 06:40:00,
2013-04-13 02:45:00,75.0,72.5,29.89,South,183,0.0,1.0,92,0.00,,SCT030,0.00,69.00,VWS V14.01,2013-04-13 06:45:00,
2013-04-13 02:50:00,75.0,72.5,29.89,South,182,0.0,3.0,92,0.00,,SCT030,0.00,69.00,VWS V14.01,2013-04-13 06:50:00,
2013-04-13 02:55:00,75.1,72.6,29.89,South,183,0.0,3.0,92,0.00,,SCT030,0.00,69.00,VWS V14.01,2013-04-13 06:55:00,
2013-04-13 03:00:00,75.2,72.7,29.89,South,182,0.0,3.0,92,0.00,,SCT030,0.00,69.00,VWS V14.01,2013-04-13 07:00:00,
2013-04-13 03:05:00,75.2,72.7,29.89,South,183,0.0,3.0,92,0.00,,SCT030,0.00,69.00,VWS V14.01,2013-04-13 07:05:00,
2013-04-13 03:11:00,75.3,72.8,29.88,South,183,1.0,3.0,92,0.00,,SCT030,0.00,69.00,VWS V14.01,2013-04-13 07:11:00,
2013-04-13 03:16:00,75.4,72.9,29.88,South,181,2.0,4.0,92,0.00,,SCT030,0.00,69.00,VWS V14.01,2013-04-13 07:16:00,
2013-04-13 03:21:00,75.5,73.0,29.88,South,177,4.0,4.0,92,0.00,,SCT030,0.00,69.00,VWS V14.01,2013-04-13 07:21:00,
2013-04-13 03:26:00,75.6,73.4,29.88,SSE,156,2.0,5.0,93,0.00,,SCT030,0.00,69.00,VWS V14.01,2013-04-13 07:26:00,
2013-04-13 03:31:00,75.7,73.5,29.88,SSE,157,0.0,6.0,93,0.00,,SCT030,0.00,69.00,VWS V14.01,2013-04-13 07:31:00,
2013-04-13 03:37:00,75.7,73.5,29.88,SSE,150,4.0,5.0,93,0.00,,SCT030,0.00,69.00,VWS V14.01,2013-04-13 07:37:00,
2013-04-13 03:42:00,75.8,73.6,29.87,SE,144,4.0,5.0,93,0.00,,SCT030,0.00,69.00,VWS V14.01,2013-04-13 07:42:00,
2013-04-13 03:47:00,75.8,73.6,29.86,SE,145,2.0,7.0,93,0.00,,SCT030,0.00,69.00,VWS V14.01,2013-04-13 07:47:00,
2013-04-13 03:52:00,75.8,73.6,29.86,SSE,155,3.0,8.0,93,0.00,,SCT030,0.00,69.00,VWS V14.01,2013-04-13 07:52:00,
2013-04-13 03:57:00,75.8,73.6,29.86,SSE,152,1.0,7.0,93,0.00,,SCT030,0.00,69.00,VWS V14.01,2013-04-13 07:57:00,
2013-04-13 04:02:00,75.8,73.6,29.86,SE,137,3.0,6.0,93,0.00,,SCT030,0.00,69.00,VWS V14.01,2013-04-13 08:02:00,
2013-04-13 04:07:00,75.8,73.6,29.86,SE,131,5.0,7.0,93,0.00,,SCT030,0.00,69.00,VWS V14.01,2013-04-13 08:07:00,
2013-04-13 04:12:00,75.8,73.6,29.86,SE,140,2.0,7.0,93,0.00,,SCT030,0.00,69.00,VWS V14.01,2013-04-13 08:12:00,
2013-04-13 04:17:00,75.9,73.7,29.86,SE,145,2.0,9.0,93,0.00,,SCT030,0.00,69.00,VWS V14.01,2013-04-13 08:17:00,
2013-04-13 04:22:00,75.9,73.7,29.86,SSE,150,3.0,6.0,93,0.00,,SCT030,0.00,69.00,VWS V14.01,2013-04-13 08:22:00,
2013-04-13 04:27:00,75.9,73.7,29.85,SE,137,4.0,9.0,93,0.00,,SCT030,0.00,69.00,VWS V14.01,2013-04-13 08:27:00,
2013-04-13 04:33:00,75.8,73.6,29.86,SE,144,4.0,4.0,93,0.00,,SCT030,0.00,69.00,VWS V14.01,2013-04-13 08:33:00,
2013-04-13 04:38:00,75.8,73.6,29.86,SSE,148,4.0,5.0,93,0.00,,SCT030,0.00,69.00,VWS V14.01,2013-04-13 08:38:00,
2013-04-13 04:43:00,75.8,73.6,29.85,SE,138,3.0,6.0,93,0.00,,SCT030,0.00,69.00,VWS V14.01,2013-04-13 08:43:00,
2013-04-13 04:48:00,75.8,73.6,29.85,SE,146,3.0,3.0,93,0.00,,SCT030,0.00,69.00,VWS V14.01,2013-04-13 08:48:00,
2013-04-13 04:53:00,75.8,73.6,29.85,SSE,153,3.0,7.0,93,0.00,,SCT030,0.00,69.00,VWS V14.01,2013-04-13 08:53:00,
2013-04-13 04:58:00,75.8,73.6,29.85,SSE,150,6.0,11.0,93,0.00,,SCT030,0.00,69.00,VWS V14.01,2013-04-13 08:58:00,
2013-04-13 05:03:00,75.8,73.6,29.85,SE,144,2.0,5.0,93,0.00,,SCT030,0.00,69.00,VWS V14.01,2013-04-13 09:03:00,
2013-04-13 05:08:00,75.7,73.5,29.85,SSE,149,5.0,10.0,93,0.00,,SCT030,0.00,69.00,VWS V14.01,2013-04-13 09:08:00,
2013-04-13 05:13:00,75.7,73.5,29.85,ESE,119,5.0,7.0,93,0.00,,SCT030,0.00,69.00,VWS V14.01,2013-04-13 09:13:00,
2013-04-13 05:18:00,75.5,73.0,29.86,South,172,6.0,10.0,92,0.00,,SCT030,0.00,69.00,VWS V14.01,2013-04-13 09:18:00,
2013-04-13 05:23:00,75.3,72.8,29.86,SSE,152,10.0,10.0,92,0.00,,SCT030,0.00,69.00,VWS V14.01,2013-04-13 09:23:00,
2013-04-13 05:28:00,75.0,72.5,29.86,South,185,7.0,10.0,92,0.00,,SCT030,0.00,69.00,VWS V14.01,2013-04-13 09:28:00,
2013-04-13 05:33:00,74.9,72.4,29.86,SE,140,4.0,9.0,92,0.00,,SCT030,0.00,69.00,VWS V14.01,2013-04-13 09:33:00,
2013-04-13 05:38:00,74.9,72.1,29.86,South,169,4.0,4.0,91,0.00,,SCT030,0.00,67.00,VWS V14.01,2013-04-13 09:38:00,
2013-04-13 05:43:00,74.9,72.1,29.86,SSE,162,1.0,4.0,91,0.00,,SCT030,0.00,67.00,VWS V14.01,2013-04-13 09:43:00,
2013-04-13 05:48:00,75.0,71.9,29.85,SSE,159,2.0,3.0,90,0.00,,SCT030,0.00,67.00,VWS V14.01,2013-04-13 09:48:00,
2013-04-13 05:53:00,75.0,71.9,29.85,SSE,167,0.0,0.0,90,0.00,,SCT030,0.00,67.00,VWS V14.01,2013-04-13 09:53:00,
2013-04-13 05:58:00,75.0,71.9,29.85,SSE,166,0.0,1.0,90,0.00,,SCT030,0.00,67.00,VWS V14.01,2013-04-13 09:58:00,
2013-04-13 06:03:00,75.0,71.9,29.85,SSE,153,1.0,4.0,90,0.00,,SCT030,0.00,67.00,VWS V14.01,2013-04-13 10:03:00,
2013-04-13 06:08:00,74.9,71.4,29.85,SSE,163,0.0,3.0,89,0.00,,SCT030,0.00,67.00,VWS V14.01,2013-04-13 10:08:00,
2013-04-13 06:13:00,74.9,71.4,29.86,SE,141,3.0,4.0,89,0.00,,SCT030,0.00,67.00,VWS V14.01,2013-04-13 10:13:00,
2013-04-13 06:18:00,74.9,71.4,29.86,SSE,148,0.0,1.0,89,0.00,,SCT030,0.00,67.00,VWS V14.01,2013-04-13 10:18:00,
2013-04-13 06:23:00,74.9,71.4,29.86,South,175,4.0,4.0,89,0.00,,SCT030,0.00,67.00,VWS V14.01,2013-04-13 10:23:00,
2013-04-13 06:28:00,74.9,71.1,29.85,South,185,1.0,2.0,88,0.00,,SCT030,0.00,67.00,VWS V14.01,2013-04-13 10:28:00,
2013-04-13 06:34:00,75.0,71.2,29.85,SE,145,0.0,4.0,88,0.00,,SCT030,0.00,67.00,VWS V14.01,2013-04-13 10:34:00,
2013-04-13 06:39:00,75.0,71.2,29.85,SE,131,4.0,4.0,88,0.00,,SCT030,0.00,67.00,VWS V14.01,2013-04-13 10:39:00,
2013-04-13 06:44:00,75.0,71.2,29.85,South,178,1.0,4.0,88,0.00,,SCT030,0.00,67.00,VWS V14.01,2013-04-13 10:44:00,
2013-04-13 06:49:00,75.0,71.2,29.85,SSE,155,2.0,3.0,88,0.00,,SCT030,0.00,67.00,VWS V14.01,2013-04-13 10:49:00,
2013-04-13 06:54:00,74.9,71.1,29.85,SSE,161,3.0,3.0,88,0.00,,SCT030,0.00,67.00,VWS V14.01,2013-04-13 10:54:00,
2013-04-13 06:59:00,74.9,71.1,29.85,SSE,157,0.0,4.0,88,0.00,,SCT030,0.00,69.00,VWS V14.01,2013-04-13 10:59:00,
2013-04-13 07:04:00,74.9,71.1,29.85,SSE,154,0.0,2.0,88,0.00,,SCT030,0.00,70.00,VWS V14.01,2013-04-13 11:04:00,
2013-04-13 07:09:00,74.8,71.0,29.85,SE,140,0.0,2.0,88,0.00,,SCT030,0.00,72.00,VWS V14.01,2013-04-13 11:09:00,
2013-04-13 07:14:00,74.8,70.7,29.86,SSE,167,0.0,2.0,87,0.00,,SCT030,0.00,76.00,VWS V14.01,2013-04-13 11:14:00,
2013-04-13 07:19:00,74.7,70.6,29.86,SSE,167,0.0,3.0,87,0.00,,SCT030,0.00,77.00,VWS V14.01,2013-04-13 11:19:00,
2013-04-13 07:25:00,74.7,70.6,29.86,SSE,162,2.0,5.0,87,0.00,,SCT030,0.00,79.00,VWS V14.01,2013-04-13 11:25:00,
2013-04-13 07:30:00,74.8,70.7,29.86,SSE,159,1.0,2.0,87,0.00,,SCT030,0.00,83.00,VWS V14.01,2013-04-13 11:30:00,
2013-04-13 07:35:00,74.9,70.8,29.86,SSE,159,1.0,3.0,87,0.00,,SCT030,0.00,83.00,VWS V14.01,2013-04-13 11:35:00,
2013-04-13 07:40:00,74.9,70.8,29.86,SE,137,1.0,5.0,87,0.00,,SCT030,0.00,83.00,VWS V14.01,2013-04-13 11:40:00,
2013-04-13 07:45:00,75.1,71.0,29.87,SE,139,0.0,2.0,87,0.00,,SCT030,0.00,86.00,VWS V14.01,2013-04-13 11:45:00,
2013-04-13 07:50:00,75.2,71.1,29.87,South,175,0.0,5.0,87,0.00,,SCT030,0.00,98.00,VWS V14.01,2013-04-13 11:50:00,
2013-04-13 07:55:00,75.3,71.2,29.87,South,169,4.0,4.0,87,0.00,,SCT070,0.00,125.00,VWS V14.01,2013-04-13 11:55:00,
2013-04-13 08:00:00,75.4,71.3,29.87,South,171,1.0,4.0,87,0.00,,SCT070,0.00,144.00,VWS V14.01,2013-04-13 12:00:00,
2013-04-13 08:05:00,75.6,71.8,29.87,SE,146,3.0,6.0,88,0.00,,SCT070,0.00,165.00,VWS V14.01,2013-04-13 12:05:00,
2013-04-13 08:10:00,75.9,72.1,29.87,SE,146,1.0,5.0,88,0.00,,SCT070,0.00,269.00,VWS V14.01,2013-04-13 12:10:00,
2013-04-13 08:15:00,76.4,72.6,29.88,SSE,162,2.0,6.0,88,0.00,,SCT070,0.00,265.00,VWS V14.01,2013-04-13 12:15:00,
2013-04-13 08:20:00,76.8,73.0,29.88,SSE,167,5.0,6.0,88,0.00,,SCT070,0.00,257.00,VWS V14.01,2013-04-13 12:20:00,
2013-04-13 08:25:00,77.2,73.4,29.89,South,169,0.0,2.0,88,0.00,,SCT070,0.00,334.00,VWS V14.01,2013-04-13 12:25:00,
2013-04-13 08:30:00,77.7,73.9,29.88,SSE,155,2.0,6.0,88,0.00,,SCT070,0.00,343.00,VWS V14.01,2013-04-13 12:30:00,
2013-04-13 08:35:00,78.2,74.0,29.89,SSW,192,1.0,7.0,87,0.00,,SCT070,0.00,292.00,VWS V14.01,2013-04-13 12:35:00,
2013-04-13 08:40:00,78.6,74.1,29.89,SSW,198,2.0,4.0,86,0.00,,SCT070,0.00,190.00,VWS V14.01,2013-04-13 12:40:00,
2013-04-13 08:45:00,78.7,73.8,29.89,SSE,158,5.0,6.0,85,0.00,,SCT070,0.00,220.00,VWS V14.01,2013-04-13 12:45:00,
2013-04-13 08:50:00,78.9,73.7,29.89,SSW,200,1.0,4.0,84,0.00,,SCT070,0.00,246.00,VWS V14.01,2013-04-13 12:50:00,
2013-04-13 08:55:00,79.0,73.8,29.89,SSW,200,0.0,2.0,84,0.00,,SCT070,0.00,241.00,VWS V14.01,2013-04-13 12:55:00,
2013-04-13 09:00:00,79.2,73.6,29.90,SSW,200,0.0,2.0,83,0.00,,SCT070,0.00,221.00,VWS V14.01,2013-04-13 13:00:00,
2013-04-13 09:06:00,79.3,73.7,29.90,SSW,200,1.0,2.0,83,0.00,,SCT090,0.00,213.00,VWS V14.01,2013-04-13 13:06:00,
2013-04-13 09:11:00,79.5,73.9,29.91,SSW,200,0.0,2.0,83,0.00,,SCT090,0.00,225.00,VWS V14.01,2013-04-13 13:11:00,
2013-04-13 09:16:00,79.7,74.1,29.91,SSW,206,0.0,4.0,83,0.00,,SCT090,0.00,346.00,VWS V14.01,2013-04-13 13:16:00,
2013-04-13 09:21:00,79.9,73.9,29.91,SW,225,0.0,5.0,82,0.00,,SCT090,0.00,267.00,VWS V14.01,2013-04-13 13:21:00,
2013-04-13 09:26:00,80.1,73.8,29.92,WSW,256,1.0,7.0,81,0.00,,SCT090,0.00,322.00,VWS V14.01,2013-04-13 13:26:00,
2013-04-13 09:32:00,80.2,73.8,29.92,West,263,3.0,9.0,81,0.00,,SCT090,0.00,255.00,VWS V14.01,2013-04-13 13:32:00,
2013-04-13 09:37:00,80.0,73.7,29.92,West,265,2.0,9.0,81,0.00,,SCT090,0.00,330.00,VWS V14.01,2013-04-13 13:37:00,
2013-04-13 09:42:00,79.9,73.9,29.93,West,261,4.0,12.0,82,0.00,,SCT090,0.00,255.00,VWS V14.01,2013-04-13 13:42:00,
2013-04-13 09:47:00,79.8,73.4,29.93,WSW,253,4.0,7.0,81,0.00,,SCT090,0.00,213.00,VWS V14.01,2013-04-13 13:47:00,
2013-04-13 09:52:00,79.9,73.9,29.93,WSW,252,6.0,8.0,82,0.00,,SCT090,0.00,223.00,VWS V14.01,2013-04-13 13:52:00,
2013-04-13 09:57:00,79.7,73.7,29.93,West,277,5.0,7.0,82,0.00,,BKN080,0.00,193.00,VWS V14.01,2013-04-13 13:57:00,
2013-04-13 10:02:00,79.3,73.7,29.94,WNW,295,2.0,9.0,83,0.00,,BKN080,0.00,176.00,VWS V14.01,2013-04-13 14:02:00,
2013-04-13 10:07:00,79.0,73.8,29.94,West,281,4.0,10.0,84,0.00,,BKN080,0.00,185.00,VWS V14.01,2013-04-13 14:07:00,
2013-04-13 10:12:00,78.7,73.8,29.94,WNW,292,2.0,8.0,85,0.00,,BKN080,0.00,209.00,VWS V14.01,2013-04-13 14:12:00,
2013-04-13 10:17:00,78.6,73.7,29.94,WNW,300,4.0,7.0,85,0.00,,BKN080,0.00,220.00,VWS V14.01,2013-04-13 14:17:00,
2013-04-13 10:22:00,78.6,74.1,29.94,NNW,328,3.0,3.0,86,0.00,,BKN080,0.00,278.00,VWS V14.01,2013-04-13 14:22:00,
2013-04-13 10:27:00,78.6,74.1,29.93,WNW,282,3.0,5.0,86,0.00,,BKN080,0.00,352.00,VWS V14.01,2013-04-13 14:27:00,
2013-04-13 10:32:00,78.7,74.2,29.93,WNW,295,3.0,3.0,86,0.00,,BKN080,0.00,374.00,VWS V14.01,2013-04-13 14:32:00,
2013-04-13 10:37:00,78.8,74.3,29.93,WNW,293,1.0,3.0,86,0.00,,BKN080,0.00,443.00,VWS V14.01,2013-04-13 14:37:00,
2013-04-13 10:43:00,79.1,74.6,29.94,WNW,284,4.0,5.0,86,0.00,,BKN080,0.00,469.00,VWS V14.01,2013-04-13 14:43:00,
2013-04-13 10:48:00,79.6,74.7,29.94,WSW,251,4.0,7.0,85,0.00,,BKN080,0.00,431.00,VWS V14.01,2013-04-13 14:48:00,
2013-04-13 10:53:00,80.3,75.0,29.94,West,279,0.0,4.0,84,0.00,,BKN080,0.00,420.00,VWS V14.01,2013-04-13 14:53:00,
2013-04-13 10:58:00,80.7,74.7,29.93,WSW,252,4.0,4.0,82,0.00,,BKN080,0.00,508.00,VWS V14.01,2013-04-13 14:58:00,
2013-04-13 11:03:00,81.3,74.9,29.93,WNW,301,5.0,5.0,81,0.00,,BKN080,0.00,436.00,VWS V14.01,2013-04-13 15:03:00,
2013-04-13 11:08:00,82.0,75.2,29.93,SW,228,4.0,4.0,80,0.00,,BKN080,0.00,512.00,VWS V14.01,2013-04-13 15:08:00,
2013-04-13 11:13:00,82.4,75.2,29.93,SW,226,1.0,1.0,79,0.00,,BKN080,0.00,726.00,VWS V14.01,2013-04-13 15:13:00,
2013-04-13 11:18:00,83.1,75.5,29.93,SW,226,0.0,1.0,78,0.00,,BKN080,0.00,287.00,VWS V14.01,2013-04-13 15:18:00,
2013-04-13 11:23:00,83.3,75.7,29.93,WSW,251,5.0,5.0,78,0.00,,BKN080,0.00,213.00,VWS V14.01,2013-04-13 15:23:00,
2013-04-13 11:28:00,83.4,75.4,29.93,WSW,248,1.0,1.0,77,0.00,,BKN080,0.00,192.00,VWS V14.01,2013-04-13 15:28:00,
2013-04-13 11:33:00,83.3,74.9,29.94,WSW,249,0.0,0.0,76,0.00,,BKN080,0.00,163.00,VWS V14.01,2013-04-13 15:33:00,
2013-04-13 11:38:00,83.3,74.9,29.94,WSW,249,0.0,0.0,76,0.00,,BKN080,0.00,137.00,VWS V14.01,2013-04-13 15:38:00,
2013-04-13 11:43:00,83.5,75.1,29.94,WSW,249,0.0,0.0,76,0.00,,BKN080,0.00,105.00,VWS V14.01,2013-04-13 15:43:00,
2013-04-13 11:49:00,83.4,74.7,29.94,WSW,248,0.0,2.0,75,0.00,,BKN080,0.00,105.00,VWS V14.01,2013-04-13 15:49:00,
2013-04-13 11:54:00,83.2,74.5,29.94,WSW,248,0.0,1.0,75,0.00,,BKN080,0.00,114.00,VWS V14.01,2013-04-13 15:54:00,
2013-04-13 11:59:00,83.3,74.6,29.94,WSW,248,0.0,0.0,75,0.00,,BKN080,0.00,109.00,VWS V14.01,2013-04-13 15:59:00,
2013-04-13 12:04:00,83.3,74.6,29.94,WSW,248,0.0,0.0,75,0.00,,BKN080,0.00,116.00,VWS V14.01,2013-04-13 16:04:00,
2013-04-13 12:09:00,83.3,74.6,29.94,WSW,248,0.0,0.0,75,0.00,,BKN080,0.00,100.00,VWS V14.01,2013-04-13 16:09:00,
2013-04-13 12:14:00,83.2,74.5,29.94,WSW,248,0.0,1.0,75,0.00,,BKN080,0.00,127.00,VWS V14.01,2013-04-13 16:14:00,
2013-04-13 12:19:00,83.2,74.5,29.93,WSW,249,0.0,1.0,75,0.00,,BKN080,0.00,134.00,VWS V14.01,2013-04-13 16:19:00,
2013-04-13 12:24:00,83.1,74.8,29.94,WSW,248,1.0,2.0,76,0.00,,BKN080,0.00,118.00,VWS V14.01,2013-04-13 16:24:00,
2013-04-13 12:29:00,82.9,74.6,29.94,WSW,246,3.0,3.0,76,0.00,,BKN080,0.00,125.00,VWS V14.01,2013-04-13 16:29:00,
2013-04-13 12:34:00,82.5,74.6,29.94,WSW,250,0.0,5.0,77,0.00,,BKN080,0.00,128.00,VWS V14.01,2013-04-13 16:34:00,
2013-04-13 12:39:00,82.1,74.6,29.93,WSW,254,4.0,4.0,78,0.00,,BKN080,0.00,162.00,VWS V14.01,2013-04-13 16:39:00,
2013-04-13 12:44:00,81.9,74.4,29.93,WSW,255,0.0,2.0,78,0.00,,BKN080,0.00,183.00,VWS V14.01,2013-04-13 16:44:00,
2013-04-13 12:49:00,81.9,74.8,29.93,WSW,254,0.0,2.0,79,0.00,,BKN080,0.00,197.00,VWS V14.01,2013-04-13 16:49:00,
2013-04-13 12:54:00,81.9,74.8,29.93,WSW,249,0.0,2.0,79,0.00,,BKN080,0.00,158.00,VWS V14.01,2013-04-13 16:54:00,
2013-04-13 12:59:00,81.9,74.8,29.93,WSW,247,2.0,2.0,79,0.00,,BKN080,0.00,207.00,VWS V14.01,2013-04-13 16:59:00,
2013-04-13 13:04:00,82.0,74.8,29.93,WSW,244,1.0,3.0,79,0.00,,BKN080,0.00,230.00,VWS V14.01,2013-04-13 17:04:00,
2013-04-13 13:09:00,81.8,73.9,29.93,South,171,1.0,4.0,77,0.00,,BKN080,0.00,290.00,VWS V14.01,2013-04-13 17:09:00,
2013-04-13 13:14:00,81.6,72.5,29.92,SE,144,4.0,5.0,74,0.00,,BKN080,0.00,364.00,VWS V14.01,2013-04-13 17:14:00,
2013-04-13 13:19:00,81.8,72.7,29.93,SE,138,2.0,4.0,74,0.00,,BKN080,0.00,287.00,VWS V14.01,2013-04-13 17:19:00,
2013-04-13 13:24:00,82.2,73.5,29.92,SE,146,2.0,5.0,75,0.00,,BKN080,0.00,388.00,VWS V14.01,2013-04-13 17:24:00,
2013-04-13 13:30:00,83.0,73.9,29.92,SSE,164,5.0,9.0,74,0.00,,BKN080,0.00,1027.00,VWS V14.01,2013-04-13 17:30:00,
2013-04-13 13:35:00,82.9,74.2,29.92,SE,140,7.0,13.0,75,0.00,,BKN080,0.00,531.00,VWS V14.01,2013-04-13 17:35:00,
2013-04-13 13:40:00,83.4,74.7,29.91,SSE,162,6.0,12.0,75,0.00,,BKN080,0.00,1044.00,VWS V14.01,2013-04-13 17:40:00,
2013-04-13 13:46:00,84.5,75.3,29.91,South,172,2.0,10.0,74,0.00,,BKN080,0.00,988.00,VWS V14.01,2013-04-13 17:46:00,
2013-04-13 13:51:00,85.0,74.6,29.90,SSE,167,6.0,7.0,71,0.00,,SCT020,0.00,983.00,VWS V14.01,2013-04-13 17:51:00,
2013-04-13 13:56:00,85.4,74.5,29.90,South,182,2.0,7.0,70,0.00,,SCT020,0.00,976.00,VWS V14.01,2013-04-13 17:56:00,
2013-04-13 14:02:00,85.6,74.7,29.90,South,173,4.0,10.0,70,0.00,,SCT020,0.00,1002.00,VWS V14.01,2013-04-13 18:02:00,
2013-04-13 14:07:00,86.5,75.1,29.90,SSE,167,2.0,6.0,69,0.00,,SCT020,0.00,1083.00,VWS V14.01,2013-04-13 18:07:00,
2013-04-13 14:12:00,86.9,75.5,29.90,SSW,196,3.0,10.0,69,0.00,,SCT020,0.00,1100.00,VWS V14.01,2013-04-13 18:12:00,
2013-04-13 14:17:00,87.3,75.0,29.91,SSW,199,1.0,8.0,67,0.00,,SCT020,0.00,353.00,VWS V14.01,2013-04-13 18:17:00,
2013-04-13 14:22:00,87.5,74.8,29.91,South,187,1.0,7.0,66,0.00,,SCT020,0.00,225.00,VWS V14.01,2013-04-13 18:22:00,
2013-04-13 14:27:00,87.5,74.8,29.90,SSE,157,0.0,6.0,66,0.00,,SCT020,0.00,185.00,VWS V14.01,2013-04-13 18:27:00,
2013-04-13 14:32:00,87.4,74.7,29.90,SSW,210,0.0,6.0,66,0.00,,SCT020,0.00,142.00,VWS V14.01,2013-04-13 18:32:00,
2013-04-13 14:37:00,87.2,74.5,29.90,SSW,195,3.0,5.0,66,0.00,,SCT020,0.00,113.00,VWS V14.01,2013-04-13 18:37:00,
2013-04-13 14:42:00,87.0,75.6,29.90,SSW,197,6.0,7.0,69,0.00,,SCT020,0.00,91.00,VWS V14.01,2013-04-13 18:42:00,
2013-04-13 14:47:00,86.5,76.4,29.89,South,185,3.0,9.0,72,0.00,,SCT020,0.00,79.00,VWS V14.01,2013-04-13 18:47:00,
2013-04-13 14:52:00,85.6,76.4,29.89,SW,223,0.0,5.0,74,0.00,,SCT050,0.00,109.00,VWS V14.01,2013-04-13 18:52:00,
2013-04-13 14:57:00,84.2,75.0,29.90,WSW,253,4.0,10.0,74,0.00,,SCT050,0.00,116.00,VWS V14.01,2013-04-13 18:57:00,
2013-04-13 15:02:00,82.3,74.4,29.89,SSW,194,2.0,5.0,77,0.00,,SCT050,0.00,144.00,VWS V14.01,2013-04-13 19:02:00,
2013-04-13 15:07:00,81.2,74.4,29.88,South,190,1.0,6.0,80,0.00,,SCT050,0.00,163.00,VWS V14.01,2013-04-13 19:07:00,
2013-04-13 15:12:00,80.0,74.0,29.89,South,191,0.0,9.0,82,0.00,,SCT050,0.00,160.00,VWS V14.01,2013-04-13 19:12:00,
2013-04-13 15:17:00,79.2,73.6,29.90,SW,225,2.0,4.0,83,0.00,,SCT050,0.00,160.00,VWS V14.01,2013-04-13 19:17:00,
2013-04-13 15:22:00,78.3,72.7,29.91,West,277,1.0,3.0,83,0.00,,SCT050,0.00,151.00,VWS V14.01,2013-04-13 19:22:00,
2013-04-13 15:27:00,77.7,72.5,29.91,West,276,0.0,3.0,84,0.00,,SCT050,0.00,139.00,VWS V14.01,2013-04-13 19:27:00,
2013-04-13 15:32:00,77.6,72.7,29.91,South,178,0.0,3.0,85,0.00,,SCT050,0.00,121.00,VWS V14.01,2013-04-13 19:32:00,
2013-04-13 15:37:00,77.5,73.0,29.90,SSE,148,1.0,5.0,86,0.00,,SCT050,0.00,109.00,VWS V14.01,2013-04-13 19:37:00,
2013-04-13 15:42:00,77.2,73.0,29.90,SE,133,0.0,4.0,87,0.00,,SCT050,0.00,137.00,VWS V14.01,2013-04-13 19:42:00,
2013-04-13 15:47:00,77.2,73.4,29.90,SSE,149,2.0,4.0,88,0.00,,SCT050,0.00,105.00,VWS V14.01,2013-04-13 19:47:00,
2013-04-13 15:52:00,77.1,73.3,29.89,SSE,148,0.0,3.0,88,0.00,,SCT050,0.00,98.00,VWS V14.01,2013-04-13 19:52:00,
2013-04-13 15:57:00,77.0,73.5,29.89,SSE,148,0.0,1.0,89,0.00,,SCT050,0.00,88.00,VWS V14.01,2013-04-13 19:57:00,
2013-04-13 16:02:00,76.9,73.4,29.89,SSE,149,3.0,3.0,89,0.00,,SCT050,0.00,74.00,VWS V14.01,2013-04-13 20:02:00,
2013-04-13 16:07:00,76.6,73.1,29.89,SE,130,0.0,5.0,89,0.00,,SCT050,0.00,70.00,VWS V14.01,2013-04-13 20:07:00,
2013-04-13 16:12:00,76.6,73.4,29.89,SE,130,1.0,2.0,90,0.00,,SCT050,0.00,76.00,VWS V14.01,2013-04-13 20:12:00,
2013-04-13 16:17:00,76.6,73.4,29.89,NNW,329,5.0,6.0,90,0.00,,SCT050,0.00,86.00,VWS V14.01,2013-04-13 20:17:00,
2013-04-13 16:22:00,76.6,73.4,29.89,NW,325,1.0,1.0,90,0.00,,SCT050,0.00,97.00,VWS V14.01,2013-04-13 20:22:00,
2013-04-13 16:27:00,76.4,73.2,29.89,NW,325,0.0,0.0,90,0.00,,SCT050,0.00,111.00,VWS V14.01,2013-04-13 20:27:00,
2013-04-13 16:32:00,76.4,73.2,29.89,NW,315,0.0,0.0,90,0.00,,SCT050,0.00,128.00,VWS V14.01,2013-04-13 20:32:00,
2013-04-13 16:37:00,76.5,73.7,29.88,NW,307,0.0,0.0,91,0.00,,SCT050,0.00,155.00,VWS V14.01,2013-04-13 20:37:00,
2013-04-13 16:42:00,76.5,73.7,29.87,NW,308,2.0,2.0,91,0.00,,SCT050,0.00,144.00,VWS V14.01,2013-04-13 20:42:00,
2013-04-13 16:47:00,76.1,73.0,29.88,NW,306,1.0,2.0,90,0.00,,SCT050,0.00,97.00,VWS V14.01,2013-04-13 20:47:00,
2013-04-13 16:52:00,76.1,73.0,29.87,NW,304,0.0,0.0,90,0.00,,SCT050,0.00,81.00,VWS V14.01,2013-04-13 20:52:00,
2013-04-13 16:57:00,76.2,73.4,29.88,West,273,2.0,2.0,91,0.00,,SCT030,0.00,76.00,VWS V14.01,2013-04-13 20:57:00,
2013-04-13 17:02:00,76.1,73.3,29.88,West,280,5.0,6.0,91,0.00,,SCT030,0.00,81.00,VWS V14.01,2013-04-13 21:02:00,
2013-04-13 17:07:00,75.9,73.1,29.88,WNW,288,4.0,4.0,91,0.00,,SCT030,0.00,93.00,VWS V14.01,2013-04-13 21:07:00,
2013-04-13 17:12:00,76.0,73.2,29.89,WNW,288,2.0,2.0,91,0.00,,SCT030,0.00,91.00,VWS V14.01,2013-04-13 21:12:00,
2013-04-13 17:17:00,76.1,73.3,29.88,NNW,327,4.0,4.0,91,0.00,,SCT030,0.00,90.00,VWS V14.01,2013-04-13 21:17:00,
2013-04-13 17:22:00,75.5,72.7,29.88,WNW,288,3.0,3.0,91,0.00,,SCT030,0.00,93.00,VWS V14.01,2013-04-13 21:22:00,
2013-04-13 17:27:00,75.0,72.2,29.88,NW,322,6.0,6.0,91,0.00,,SCT030,0.00,102.00,VWS V14.01,2013-04-13 21:27:00,
2013-04-13 17:32:00,74.8,72.0,29.88,WNW,298,6.0,6.0,91,0.00,,SCT030,0.00,97.00,VWS V14.01,2013-04-13 21:32:00,
2013-04-13 17:37:00,74.4,71.6,29.87,NW,312,5.0,6.0,91,0.00,,SCT030,0.00,90.00,VWS V14.01,2013-04-13 21:37:00,
2013-04-13 17:42:00,73.9,71.1,29.87,WSW,243,0.0,0.0,91,0.00,,SCT030,0.00,81.00,VWS V14.01,2013-04-13 21:42:00,
2013-04-13 17:47:00,73.8,71.0,29.86,SW,223,1.0,1.0,91,0.00,,SCT030,0.00,74.00,VWS V14.01,2013-04-13 21:47:00,
2013-04-13 17:52:00,73.5,70.7,29.87,NW,315,4.0,4.0,91,0.00,,SCT030,0.00,70.00,VWS V14.01,2013-04-13 21:52:00,
2013-04-13 17:57:00,73.2,70.4,29.87,North,351,3.0,3.0,91,0.00,,SCT030,0.00,72.00,VWS V14.01,2013-04-13 21:57:00,
2013-04-13 18:02:00,73.0,70.2,29.88,NNW,336,1.0,2.0,91,0.00,,SCT030,0.00,58.00,VWS V14.01,2013-04-13 22:02:00,
2013-04-13 18:07:00,72.8,70.0,29.87,NNW,336,3.0,3.0,91,0.00,,SCT030,0.00,54.00,VWS V14.01,2013-04-13 22:07:00,
2013-04-13 18:12:00,72.7,69.9,29.87,NNW,338,0.0,0.0,91,0.00,,SCT030,0.00,53.00,VWS V14.01,2013-04-13 22:12:00,
2013-04-13 18:17:00,72.7,69.9,29.86,NNW,338,0.0,0.0,91,0.00,,SCT030,0.00,56.00,VWS V14.01,2013-04-13 22:17:00,
2013-04-13 18:22:00,72.7,69.9,29.87,WNW,300,4.0,4.0,91,0.00,,SCT030,0.00,54.00,VWS V14.01,2013-04-13 22:22:00,
2013-04-13 18:27:00,72.5,69.7,29.87,WNW,294,1.0,1.0,91,0.00,,SCT030,0.00,51.00,VWS V14.01,2013-04-13 22:27:00,
2013-04-13 18:32:00,72.5,69.7,29.87,WNW,294,0.0,0.0,91,0.00,,SCT030,0.00,51.00,VWS V14.01,2013-04-13 22:32:00,
2013-04-13 18:37:00,72.6,69.8,29.87,WNW,294,1.0,1.0,91,0.00,,SCT030,0.00,49.00,VWS V14.01,2013-04-13 22:37:00,
2013-04-13 18:42:00,72.7,69.9,29.88,WNW,294,0.0,0.0,91,0.00,,SCT030,0.00,46.00,VWS V14.01,2013-04-13 22:42:00,
2013-04-13 18:47:00,72.8,70.0,29.88,NE,46,0.0,2.0,91,0.00,,SCT030,0.00,42.00,VWS V14.01,2013-04-13 22:47:00,
2013-04-13 18:52:00,72.8,70.0,29.88,SE,132,1.0,3.0,91,0.00,,SCT030,0.00,42.00,VWS V14.01,2013-04-13 22:52:00,
2013-04-13 18:57:00,72.9,70.1,29.89,SE,132,0.0,1.0,91,0.00,,SCT030,0.00,30.00,VWS V14.01,2013-04-13 22:57:00,
2013-04-13 19:02:00,72.9,70.1,29.88,SE,132,0.0,1.0,91,0.00,,SCT030,0.00,69.00,VWS V14.01,2013-04-13 23:02:00,
2013-04-13 19:07:00,72.9,70.1,29.88,SE,132,1.0,1.0,91,0.00,,SCT030,0.00,69.00,VWS V14.01,2013-04-13 23:07:00,
2013-04-13 19:12:00,72.5,69.7,29.88,SE,132,0.0,3.0,91,0.00,,SCT030,0.00,70.00,VWS V14.01,2013-04-13 23:12:00,
2013-04-13 19:17:00,72.3,69.5,29.88,SE,132,0.0,2.0,91,0.00,,SCT030,0.00,69.00,VWS V14.01,2013-04-13 23:17:00,
2013-04-13 19:22:00,72.3,69.5,29.88,SE,132,0.0,1.0,91,0.00,,SCT030,0.00,69.00,VWS V14.01,2013-04-13 23:22:00,
2013-04-13 19:27:00,72.1,69.3,29.88,SE,132,0.0,1.0,91,0.00,,SCT030,0.00,67.00,VWS V14.01,2013-04-13 23:27:00,
2013-04-13 19:32:00,72.1,69.3,29.88,SE,132,0.0,0.0,91,0.00,,SCT030,0.00,67.00,VWS V14.01,2013-04-13 23:32:00,
2013-04-13 19:37:00,72.1,69.3,29.88,NNE,32,1.0,4.0,91,0.00,,SCT030,0.00,65.00,VWS V14.01,2013-04-13 23:37:00,
2013-04-13 19:42:00,72.1,69.3,29.88,NNE,31,0.0,2.0,91,0.00,,SCT030,0.00,65.00,VWS V14.01,2013-04-13 23:42:00,
2013-04-13 19:47:00,72.2,69.4,29.88,NNE,31,0.0,1.0,91,0.00,,SCT030,0.00,63.00,VWS V14.01,2013-04-13 23:47:00,
2013-04-13 19:52:00,72.2,69.4,29.88,NNE,31,0.0,1.0,91,0.00,,SCT030,0.00,63.00,VWS V14.01,2013-04-13 23:52:00,
2013-04-13 19:57:00,72.3,69.2,29.88,NNE,31,0.0,2.0,90,0.00,,SCT030,0.00,63.00,VWS V14.01,2013-04-13 23:57:00,
2013-04-13 20:02:00,72.2,69.1,29.88,NNE,31,2.0,2.0,90,0.00,,SCT030,0.00,63.00,VWS V14.01,2013-04-14 00:02:00,
2013-04-13 20:07:00,72.4,69.3,29.88,NNE,31,0.0,2.0,90,0.00,,SCT030,0.00,62.00,VWS V14.01,2013-04-14 00:07:00,
2013-04-13 20:12:00,72.5,69.4,29.87,NNE,31,0.0,1.0,90,0.00,,SCT030,0.00,62.00,VWS V14.01,2013-04-14 00:12:00,
2013-04-13 20:17:00,72.6,69.8,29.88,NE,34,0.0,2.0,91,0.00,,SCT030,0.00,62.00,VWS V14.01,2013-04-14 00:17:00,
2013-04-13 20:22:00,72.6,69.5,29.88,South,173,3.0,5.0,90,0.00,,SCT030,0.00,60.00,VWS V14.01,2013-04-14 00:22:00,
2013-04-13 20:27:00,72.4,69.3,29.88,South,173,0.0,0.0,90,0.00,,SCT030,0.00,60.00,VWS V14.01,2013-04-14 00:27:00,
2013-04-13 20:32:00,72.2,69.1,29.88,South,173,0.0,1.0,90,0.00,,SCT030,0.00,60.00,VWS V14.01,2013-04-14 00:32:00,
2013-04-13 20:37:00,72.1,69.0,29.89,South,173,0.0,2.0,90,0.00,,SCT030,0.00,58.00,VWS V14.01,2013-04-14 00:37:00,
2013-04-13 20:42:00,72.2,69.4,29.89,South,173,0.0,2.0,91,0.00,,SCT030,0.00,58.00,VWS V14.01,2013-04-14 00:42:00,
2013-04-13 20:47:00,72.3,69.5,29.90,ESE,109,0.0,0.0,91,0.00,,SCT030,0.00,54.00,VWS V14.01,2013-04-14 00:47:00,
2013-04-13 20:52:00,72.3,69.5,29.90,ESE,109,0.0,0.0,91,0.00,,SCT030,0.00,0.00,VWS V14.01,2013-04-14 00:52:00,
2013-04-13 20:57:00,72.2,69.4,29.90,ESE,109,0.0,1.0,91,0.00,,SCT030,0.00,0.00,VWS V14.01,2013-04-14 00:57:00,
2013-04-13 21:02:00,72.1,69.3,29.90,ESE,109,1.0,1.0,91,0.00,,SCT030,0.00,0.00,VWS V14.01,2013-04-14 01:02:00,
2013-04-13 21:07:00,72.0,69.2,29.90,ESE,109,2.0,3.0,91,0.00,,SCT030,0.00,0.00,VWS V14.01,2013-04-14 01:07:00,
2013-04-13 21:12:00,72.1,69.3,29.90,ESE,107,1.0,2.0,91,0.00,,SCT030,0.00,0.00,VWS V14.01,2013-04-14 01:12:00,
2013-04-13 21:17:00,72.2,69.4,29.90,ESE,105,0.0,2.0,91,0.00,,SCT030,0.00,0.00,VWS V14.01,2013-04-14 01:17:00,
2013-04-13 21:22:00,72.3,69.5,29.90,East,101,0.0,3.0,91,0.00,,SCT030,0.00,0.00,VWS V14.01,2013-04-14 01:22:00,
2013-04-13 21:27:00,72.5,69.7,29.91,East,101,0.0,2.0,91,0.00,,SCT030,0.00,0.00,VWS V14.01,2013-04-14 01:27:00,
2013-04-13 21:32:00,72.5,69.7,29.91,ESE,115,0.0,2.0,91,0.00,,SCT030,0.00,0.00,VWS V14.01,2013-04-14 01:32:00,
2013-04-13 21:37:00,72.6,69.8,29.92,South,176,0.0,2.0,91,0.00,,SCT030,0.00,0.00,VWS V14.01,2013-04-14 01:37:00,
2013-04-13 21:42:00,72.6,69.8,29.92,South,173,0.0,2.0,91,0.00,,SCT030,0.00,0.00,VWS V14.01,2013-04-14 01:42:00,
2013-04-13 21:47:00,72.7,69.9,29.91,South,171,1.0,3.0,91,0.00,,SCT030,0.00,0.00,VWS V14.01,2013-04-14 01:47:00,
2013-04-13 21:52:00,72.7,69.9,29.92,South,171,0.0,1.0,91,0.00,,SCT030,0.00,0.00,VWS V14.01,2013-04-14 01:52:00,
2013-04-13 21:57:00,72.7,69.9,29.92,South,171,0.0,0.0,91,0.00,,SCT030,0.00,0.00,VWS V14.01,2013-04-14 01:57:00,
2013-04-13 22:02:00,72.8,70.0,29.92,South,171,0.0,0.0,91,0.00,,SCT030,0.00,0.00,VWS V14.01,2013-04-14 02:02:00,
2013-04-13 22:07:00,72.8,70.0,29.93,South,171,0.0,1.0,91,0.00,,SCT030,0.00,0.00,VWS V14.01,2013-04-14 02:07:00,
2013-04-13 22:12:00,72.8,70.0,29.92,South,171,0.0,0.0,91,0.00,,SCT030,0.00,0.00,VWS V14.01,2013-04-14 02:12:00,
2013-04-13 22:17:00,72.7,70.2,29.92,South,171,0.0,0.0,92,0.00,,SCT030,0.00,0.00,VWS V14.01,2013-04-14 02:17:00,
2013-04-13 22:22:00,72.7,70.2,29.93,South,171,0.0,0.0,92,0.00,,SCT030,0.00,0.00,VWS V14.01,2013-04-14 02:22:00,
2013-04-13 22:27:00,72.8,70.3,29.93,South,171,0.0,0.0,92,0.00,,SCT030,0.00,0.00,VWS V14.01,2013-04-14 02:27:00,
2013-04-13 22:32:00,72.8,70.3,29.93,South,171,0.0,1.0,92,0.00,,SCT030,0.00,0.00,VWS V14.01,2013-04-14 02:32:00,
2013-04-13 22:37:00,72.8,70.3,29.93,South,171,0.0,0.0,92,0.00,,SCT030,0.00,0.00,VWS V14.01,2013-04-14 02:37:00,
2013-04-13 22:42:00,72.8,70.3,29.93,South,171,0.0,0.0,92,0.00,,SCT030,0.00,0.00,VWS V14.01,2013-04-14 02:42:00,
2013-04-13 22:47:00,72.7,70.2,29.93,South,171,0.0,0.0,92,0.00,,SCT030,0.00,0.00,VWS V14.01,2013-04-14 02:47:00,
2013-04-13 22:52:00,72.7,70.2,29.93,South,171,0.0,0.0,92,0.00,,SCT030,0.00,0.00,VWS V14.01,2013-04-14 02:52:00,
2013-04-13 22:57:00,72.7,70.2,29.93,South,171,0.0,0.0,92,0.00,,SCT030,0.00,0.00,VWS V14.01,2013-04-14 02:57:00,
2013-04-13 23:02:00,72.6,70.2,29.93,South,171,0.0,0.0,92,0.00,,SCT030,0.00,0.00,VWS V14.01,2013-04-14 03:02:00,
2013-04-13 23:07:00,72.7,70.2,29.93,South,171,0.0,0.0,92,0.00,,SCT030,0.00,0.00,VWS V14.01,2013-04-14 03:07:00,
2013-04-13 23:12:00,72.7,70.2,29.93,South,171,0.0,0.0,92,0.00,,SCT030,0.00,0.00,VWS V14.01,2013-04-14 03:12:00,
2013-04-13 23:17:00,72.8,70.3,29.93,South,171,0.0,0.0,92,0.00,,SCT030,0.00,0.00,VWS V14.01,2013-04-14 03:17:00,
2013-04-13 23:22:00,72.9,70.4,29.93,South,171,0.0,0.0,92,0.00,,SCT030,0.00,0.00,VWS V14.01,2013-04-14 03:22:00,
2013-04-13 23:27:00,73.0,70.9,29.93,South,171,0.0,0.0,93,0.00,,SCT030,0.00,0.00,VWS V14.01,2013-04-14 03:27:00,
2013-04-13 23:32:00,72.9,70.8,29.93,South,171,0.0,0.0,93,0.00,,SCT030,0.00,0.00,VWS V14.01,2013-04-14 03:32:00,
2013-04-13 23:37:00,73.0,70.9,29.93,South,171,0.0,0.0,93,0.00,,SCT030,0.00,0.00,VWS V14.01,2013-04-14 03:37:00,
2013-04-13 23:42:00,73.0,70.9,29.93,South,171,0.0,0.0,93,0.00,,SCT030,0.00,0.00,VWS V14.01,2013-04-14 03:42:00,
2013-04-13 23:47:00,72.9,70.8,29.93,South,171,0.0,0.0,93,0.00,,SCT030,0.00,0.00,VWS V14.01,2013-04-14 03:47:00,
2013-04-13 23:52:00,72.9,70.8,29.93,South,171,0.0,0.0,93,0.00,,SCT030,0.00,0.00,VWS V14.01,2013-04-14 03:52:00,
2013-04-13 23:58:00,72.9,70.8,29.93,South,171,0.0,0.0,93,0.00,,SCT030,0.00,0.00,VWS V14.01,2013-04-14 03:58:00,